createdAt,value
2023-03-02T00:02:23.726Z,5.50
2023-03-02T00:07:30.165Z,5.50
2023-03-02T00:12:34.771Z,5.40
2023-03-02T00:17:36.959Z,5.50
2023-03-02T00:22:39.880Z,5.50
2023-03-02T00:27:43.643Z,5.60
2023-03-02T00:32:45.852Z,5.70
2023-03-02T00:37:48.036Z,5.60
2023-03-02T00:42:51.547Z,5.60
2023-03-02T00:47:53.812Z,5.50
2023-03-02T00:52:56.006Z,5.50
2023-03-02T00:57:59.498Z,5.40
2023-03-02T01:03:01.717Z,5.40
2023-03-02T01:08:04.129Z,5.40
2023-03-02T01:13:08.316Z,5.40
2023-03-02T01:18:12.179Z,5.50
2023-03-02T01:23:15.175Z,5.50
2023-03-02T01:28:18.704Z,5.50
2023-03-02T01:33:21.024Z,5.40
2023-03-02T01:38:23.224Z,5.20
2023-03-02T01:43:27.016Z,5.10
2023-03-02T01:48:33.189Z,5.10
2023-03-02T01:53:36.590Z,5.10
2023-03-02T01:58:40.515Z,5.10
2023-03-02T02:03:44.337Z,5.10
2023-03-02T02:08:48.964Z,4.90
2023-03-02T02:13:56.698Z,4.80
2023-03-02T02:18:59.022Z,4.80
2023-03-02T02:24:09.463Z,4.80
2023-03-02T02:29:17.052Z,4.90
2023-03-02T02:34:23.942Z,4.80
2023-03-02T02:39:31.798Z,4.70
2023-03-02T02:44:35.386Z,4.70
2023-03-02T02:49:40.398Z,4.80
2023-03-02T02:54:44.361Z,4.80
2023-03-02T02:59:51.573Z,4.70
2023-03-02T03:04:53.730Z,4.80
2023-03-02T03:10:01.890Z,4.80
2023-03-02T03:15:07.886Z,4.90
2023-03-02T03:20:12.780Z,5.00
2023-03-02T03:25:15.552Z,5.10
2023-03-02T03:30:19.308Z,5.00
2023-03-02T03:35:21.459Z,4.90
2023-03-02T03:40:23.678Z,4.80
2023-03-02T03:45:29.422Z,4.90
2023-03-02T03:50:32.923Z,4.90
2023-03-02T03:55:35.063Z,5.10
2023-03-02T04:00:38.554Z,5.10
2023-03-02T04:05:40.882Z,5.20
2023-03-02T04:10:43.080Z,5.20
2023-03-02T04:15:47.238Z,5.30
2023-03-02T04:20:49.579Z,5.30
2023-03-02T04:25:51.919Z,5.20
2023-03-02T04:30:55.553Z,5.10
2023-03-02T04:35:57.796Z,5.10
2023-03-02T04:40:59.973Z,5.00
2023-03-02T04:46:03.930Z,5.10
2023-03-02T04:51:06.350Z,5.10
2023-03-02T04:56:08.489Z,5.20
2023-03-02T05:01:12.689Z,5.20
2023-03-02T05:06:15.647Z,5.30
2023-03-02T05:11:18.624Z,5.20
2023-03-02T05:16:23.620Z,5.20
2023-03-02T05:21:26.442Z,5.10
2023-03-02T05:26:28.724Z,5.10
2023-03-02T05:31:35.093Z,5.20
2023-03-02T05:36:38.100Z,5.20
2023-03-02T05:41:40.440Z,5.30
2023-03-02T05:46:44.226Z,5.20
2023-03-02T05:51:46.356Z,5.20
2023-03-02T05:56:50.303Z,5.20
2023-03-02T06:01:54.249Z,5.20
2023-03-02T06:06:56.614Z,5.20
2023-03-02T06:11:58.739Z,5.20
2023-03-02T06:17:02.638Z,5.20
2023-03-02T06:22:04.802Z,5.20
2023-03-02T06:27:07.027Z,5.20
2023-03-02T06:32:10.640Z,5.10
2023-03-02T06:37:12.892Z,5.00
2023-03-02T06:42:15.044Z,5.00
2023-03-02T06:47:18.860Z,4.90
2023-03-02T06:52:21.002Z,4.70
2023-03-02T06:57:23.337Z,4.30
2023-03-02T07:02:27.064Z,4.10
2023-03-02T07:07:29.212Z,3.90
2023-03-02T07:12:31.434Z,3.70
2023-03-02T07:17:35.680Z,3.60
2023-03-02T07:22:38.061Z,3.60
2023-03-02T07:27:41.009Z,3.70
2023-03-02T07:32:44.673Z,3.90
2023-03-02T07:37:46.865Z,4.10
2023-03-02T07:42:49.103Z,4.30
2023-03-02T07:47:52.729Z,4.30
2023-03-02T07:52:54.888Z,4.40
2023-03-02T07:57:57.107Z,4.40
2023-03-02T08:03:00.850Z,4.40
2023-03-02T08:08:03.080Z,4.50
2023-03-02T08:13:05.714Z,4.30
2023-03-02T08:18:09.456Z,4.10
2023-03-02T08:23:11.682Z,4.00
2023-03-02T08:28:13.961Z,3.80
2023-03-02T08:33:17.493Z,3.80
2023-03-02T08:38:19.716Z,3.80
2023-03-02T08:43:24.488Z,4.00
2023-03-02T08:48:29.704Z,4.30
2023-03-02T08:53:34.688Z,4.60
2023-03-02T08:58:36.831Z,4.90
2023-03-02T09:03:40.765Z,5.10
2023-03-02T09:08:43.505Z,5.30
2023-03-02T09:13:45.933Z,5.50
2023-03-02T09:18:50.161Z,5.60
2023-03-02T09:23:52.413Z,5.40
2023-03-02T09:28:54.530Z,5.30
2023-03-02T09:33:58.088Z,5.20
2023-03-02T09:39:00.244Z,5.10
2023-03-02T09:44:16.569Z,5.10
2023-03-02T09:49:33.015Z,5.20
2023-03-02T09:54:35.896Z,5.10
2023-03-02T09:59:43.034Z,5.00
2023-03-02T10:04:48.392Z,5.00
2023-03-02T10:09:50.860Z,5.10
2023-03-02T10:15:01.622Z,5.20
2023-03-02T10:20:14.135Z,5.30
2023-03-02T10:25:31.249Z,5.40
2023-03-02T10:30:34.352Z,5.60
2023-03-02T10:35:42.250Z,6.00
2023-03-02T10:40:47.011Z,6.20
2023-03-02T10:46:00.543Z,6.50
2023-03-02T10:51:04.502Z,6.80
2023-03-02T10:56:18.908Z,7.20
2023-03-02T11:01:21.196Z,7.50
2023-03-02T11:06:25.651Z,7.70
2023-03-02T11:11:29.740Z,8.00
2023-03-02T11:16:32.930Z,8.30
2023-03-02T11:21:41.756Z,8.50
2023-03-02T11:26:49.426Z,8.80
2023-03-02T11:31:54.033Z,9.00
2023-03-02T11:37:15.806Z,9.10
2023-03-02T11:42:21.120Z,9.30
2023-03-02T11:47:23.953Z,9.20
2023-03-02T11:52:30.671Z,9.20
2023-03-02T11:57:38.622Z,9.20
2023-03-02T12:02:41.818Z,9.40
2023-03-02T12:07:45.476Z,9.70
2023-03-02T12:12:59.739Z,10.00
2023-03-02T12:18:02.175Z,10.20
2023-03-02T12:23:21.531Z,10.40
2023-03-02T12:28:30.848Z,10.50
2023-03-02T12:33:38.235Z,10.70
2023-03-02T12:38:44.328Z,10.90
2023-03-02T12:44:00.622Z,11.10
2023-03-02T12:49:30.848Z,11.20
2023-03-02T12:54:35.279Z,11.20
2023-03-02T12:59:37.592Z,11.30
2023-03-02T13:04:39.972Z,11.40
2023-03-02T13:09:55.674Z,11.40
2023-03-02T13:14:59.809Z,11.30
2023-03-02T13:20:04.687Z,11.30
2023-03-02T13:25:24.724Z,11.30
2023-03-02T13:30:29.274Z,11.40
2023-03-02T13:35:33.529Z,11.30
2023-03-02T13:40:42.240Z,11.30
2023-03-02T13:45:52.697Z,11.30
2023-03-02T13:50:57.992Z,11.40
2023-03-02T13:56:01.788Z,11.40
2023-03-02T14:01:05.669Z,11.40
2023-03-02T14:06:08.909Z,11.10
2023-03-02T14:11:13.930Z,10.60
2023-03-02T14:16:17.226Z,10.30
2023-03-02T14:21:21.302Z,10.10
2023-03-02T14:26:32.662Z,10.00
2023-03-02T14:31:35.511Z,10.00
2023-03-02T14:36:38.224Z,10.10
2023-03-02T14:41:52.923Z,10.10
2023-03-02T14:46:55.900Z,10.10
2023-03-02T14:52:01.702Z,10.20
2023-03-02T14:57:05.553Z,10.30
2023-03-02T15:02:22.677Z,10.40
2023-03-02T15:07:28.308Z,10.30
2023-03-02T15:12:31.945Z,10.20
2023-03-02T15:17:34.174Z,10.20
2023-03-02T15:22:36.344Z,10.20
2023-03-02T15:27:40.041Z,10.20
2023-03-02T15:32:42.346Z,10.20
2023-03-02T15:37:44.614Z,10.10
2023-03-02T15:42:48.194Z,9.90
2023-03-02T15:47:50.369Z,9.70
2023-03-02T15:52:52.463Z,9.70
2023-03-02T15:57:56.666Z,9.70
2023-03-02T16:02:59.039Z,9.70
2023-03-02T16:08:01.286Z,9.70
2023-03-02T16:13:06.684Z,9.40
2023-03-02T16:18:09.851Z,9.00
2023-03-02T16:23:14.146Z,8.70
2023-03-02T16:28:18.999Z,8.50
2023-03-02T16:33:21.379Z,8.40
2023-03-02T16:38:38.250Z,8.40
2023-03-02T16:43:50.097Z,8.30
2023-03-02T16:48:53.006Z,8.30
2023-03-02T16:53:55.376Z,8.30
2023-03-02T16:59:00.195Z,8.20
2023-03-02T17:04:05.481Z,8.20
2023-03-02T17:09:08.191Z,8.10
2023-03-02T17:14:11.817Z,8.10
2023-03-02T17:19:14.103Z,8.00
2023-03-02T17:24:16.204Z,8.00
2023-03-02T17:29:20.047Z,7.90
2023-03-02T17:34:22.458Z,7.90
2023-03-02T17:39:24.598Z,7.80
2023-03-02T17:44:28.330Z,7.70
2023-03-02T17:49:31.056Z,7.60
2023-03-02T17:54:33.269Z,7.50
2023-03-02T17:59:36.890Z,7.50
2023-03-02T18:04:39.046Z,7.50
2023-03-02T18:09:41.309Z,7.50
2023-03-02T18:14:44.842Z,7.50
2023-03-02T18:19:47.325Z,7.50
2023-03-02T18:24:50.134Z,7.50
2023-03-02T18:29:53.844Z,7.40
2023-03-02T18:34:56.028Z,7.40
2023-03-02T18:39:58.144Z,7.40
2023-03-02T18:45:02.019Z,7.40
2023-03-02T18:50:05.897Z,7.40
2023-03-02T18:55:09.094Z,7.40
2023-03-02T19:00:19.710Z,7.50
2023-03-02T19:05:22.329Z,7.40
2023-03-02T19:10:24.459Z,7.40
2023-03-02T19:15:29.074Z,7.40
2023-03-02T19:20:57.546Z,7.30
2023-03-02T19:26:01.390Z,7.10
2023-03-02T19:31:06.633Z,6.80
2023-03-02T19:36:10.451Z,6.60
2023-03-02T19:41:15.071Z,6.40
2023-03-02T19:46:18.829Z,6.30
2023-03-02T19:51:21.086Z,6.30
2023-03-02T19:56:23.292Z,6.30
2023-03-02T20:01:27.075Z,6.20
2023-03-02T20:06:32.592Z,6.30
2023-03-02T20:11:35.161Z,6.30
2023-03-02T20:16:38.711Z,6.40
2023-03-02T20:21:40.885Z,6.40
2023-03-02T20:26:43.214Z,6.40
2023-03-02T20:31:47.193Z,6.40
2023-03-02T20:36:57.283Z,6.50
2023-03-02T20:42:00.988Z,6.60
2023-03-02T20:47:07.421Z,6.60
2023-03-02T20:52:15.727Z,6.60
2023-03-02T20:57:21.548Z,6.70
2023-03-02T21:02:25.122Z,6.70
2023-03-02T21:07:27.315Z,6.70
2023-03-02T21:12:31.129Z,6.70
2023-03-02T21:17:35.672Z,6.70
2023-03-02T21:22:38.035Z,6.70
2023-03-02T21:27:40.213Z,6.70
2023-03-02T21:32:43.733Z,6.60
2023-03-02T21:37:46.454Z,6.60
2023-03-02T21:42:48.996Z,6.60
2023-03-02T21:47:52.672Z,6.60
2023-03-02T21:52:55.635Z,6.60
2023-03-02T21:57:58.591Z,6.60
2023-03-02T22:03:02.960Z,6.50
2023-03-02T22:08:05.403Z,6.60
2023-03-02T22:13:17.047Z,6.60
2023-03-02T22:18:22.094Z,6.60
2023-03-02T22:23:26.082Z,6.60
2023-03-02T22:28:28.913Z,6.60
2023-03-02T22:33:33.931Z,6.50
2023-03-02T22:38:36.196Z,6.50
2023-03-02T22:43:38.228Z,6.50
2023-03-02T22:48:43.767Z,6.50
2023-03-02T22:53:50.965Z,6.50
2023-03-02T22:58:52.852Z,6.50
2023-03-02T23:04:03.197Z,6.50
2023-03-02T23:09:06.520Z,6.50
2023-03-02T23:14:18.591Z,6.40
2023-03-02T23:19:29.160Z,6.40
2023-03-02T23:24:32.441Z,6.40
2023-03-02T23:29:38.947Z,6.30
2023-03-02T23:35:11.128Z,6.30
2023-03-02T23:40:17.152Z,6.30
2023-03-02T23:45:28.785Z,6.30
2023-03-02T23:50:38.439Z,6.30
2023-03-02T23:55:55.996Z,6.30
